Time;durP1;ratioP1;P1;durP2;ratioP2;P2;SDS_P1;SDS_P2;PMS_P1;PMS_P2;Temp;Humidity;BMP_temperature;BMP_pressure;BME280_temperature;BME280_humidity;BME280_pressure;Samples;Min_cycle;Max_cycle;Signal;HPM_P1;HPM_P2
2021/08/05 00:00:57;;;;;;;50.15;44.95;;;18.60;99.90;;;;;;4955881;28;20047;-79
2021/08/05 00:03:27;;;;;;;53.55;47.42;;;18.50;99.90;;;;;;4956428;29;20094;-79
2021/08/05 00:21:58;;;;;;;53.08;46.10;;;18.40;99.90;;;;;;4955059;28;20056;-80
2021/08/05 00:24:29;;;;;;;52.05;46.42;;;18.30;99.90;;;;;;4956205;28;20061;-78
2021/08/05 00:27:25;;;;;;;55.60;47.05;;;18.30;99.90;;;;;;4957710;29;20062;-79
2021/08/05 00:36:15;;;;;;;53.05;47.35;;;18.20;99.90;;;;;;4959758;29;20122;-79
2021/08/05 00:42:20;;;;;;;53.13;45.28;;;18.30;99.90;;;;;;4961573;28;20707;-80
2021/08/05 00:44:53;;;;;;;52.80;47.20;;;18.30;99.90;;;;;;4961451;28;20106;-80
2021/08/05 00:47:55;;;;;;;51.67;45.83;;;18.30;99.90;;;;;;4961832;29;20051;-79
2021/08/05 00:51:30;;;;;;;50.57;45.13;;;18.30;99.90;;;;;;4946391;28;20055;-80
2021/08/05 00:54:05;;;;;;;51.30;45.90;;;18.20;99.90;;;;;;4959767;29;20066;-80
2021/08/05 00:56:35;;;;;;;50.67;45.25;;;18.30;99.90;;;;;;4959017;28;20055;-78
2021/08/05 00:59:04;;;;;;;51.95;46.00;;;18.30;99.90;;;;;;4957521;29;20059;-79
2021/08/05 01:01:45;;;;;;;49.90;44.70;;;18.30;99.90;;;;;;4957622;29;20055;-78
2021/08/05 01:04:17;;;;;;;52.05;46.28;;;18.30;99.90;;;;;;4957242;29;20051;-79
2021/08/05 01:06:58;;;;;;;53.60;48.00;;;18.30;99.90;;;;;;4960136;29;20083;-79
2021/08/05 01:09:39;;;;;;;53.33;47.30;;;18.30;99.90;;;;;;4956479;28;20142;-78
2021/08/05 01:12:28;;;;;;;53.65;48.00;;;18.20;99.90;;;;;;4956925;29;20130;-78
2021/08/05 01:15:13;;;;;;;57.00;48.53;;;18.20;99.90;;;;;;4956732;29;20079;-78
2021/08/05 01:17:47;;;;;;;51.78;46.22;;;18.20;99.90;;;;;;4955716;29;20063;-78
2021/08/05 01:39:52;;;;;;;53.72;47.92;;;18.10;99.90;;;;;;5338747;22;21849259;-80
2021/08/05 01:42:20;;;;;;;54.92;49.03;;;18.00;99.90;;;;;;6260253;23;20019;-80
2021/08/05 01:44:51;;;;;;;55.75;49.60;;;18.00;99.90;;;;;;6258783;23;20070;-81
2021/08/05 01:47:20;;;;;;;53.58;47.80;;;18.00;99.90;;;;;;6257840;23;20455;-80
2021/08/05 01:49:47;;;;;;;56.70;50.70;;;18.10;99.90;;;;;;6257864;23;20099;-80
2021/08/05 01:52:15;;;;;;;57.05;50.90;;;18.00;99.90;;;;;;6276673;22;20346;-83
2021/08/05 01:54:42;;;;;;;57.90;51.47;;;18.00;99.90;;;;;;6321408;22;20066;-82
2021/08/05 01:57:12;;;;;;;58.53;50.15;;;18.00;99.90;;;;;;6321591;22;20023;-82
2021/08/05 01:59:38;;;;;;;57.67;51.47;;;18.00;99.90;;;;;;6322674;22;20050;-82
2021/08/05 02:02:07;;;;;;;60.40;52.05;;;17.90;99.90;;;;;;6323545;22;20030;-82
2021/08/05 02:04:43;;;;;;;58.60;49.83;;;17.90;99.90;;;;;;6319399;22;20137;-79
2021/08/05 02:07:14;;;;;;;59.33;51.65;;;17.90;99.90;;;;;;6321300;22;20019;-80
2021/08/05 02:09:46;;;;;;;57.22;50.92;;;17.90;99.90;;;;;;6320667;22;20033;-78
2021/08/05 02:12:17;;;;;;;57.67;51.42;;;17.80;99.90;;;;;;6320994;22;20019;-80
2021/08/05 02:14:45;;;;;;;59.35;53.00;;;17.80;99.90;;;;;;6321033;22;20034;-80
2021/08/05 02:17:13;;;;;;;60.67;51.58;;;17.80;99.90;;;;;;6320840;22;20019;-82
2021/08/05 02:19:40;;;;;;;62.80;53.10;;;17.70;99.90;;;;;;6320026;22;20071;-80
2021/08/05 02:22:08;;;;;;;60.78;54.08;;;17.70;99.90;;;;;;6320769;22;20054;-79
2021/08/05 02:24:36;;;;;;;59.67;53.33;;;17.70;99.90;;;;;;6320264;22;20065;-80
2021/08/05 02:27:04;;;;;;;62.58;52.95;;;17.70;99.90;;;;;;6320281;22;20030;-80
2021/08/05 02:29:33;;;;;;;58.42;52.03;;;17.70;99.90;;;;;;6318947;22;20094;-79
2021/08/05 02:32:00;;;;;;;61.65;53.45;;;17.70;99.90;;;;;;6319636;22;20046;-79
2021/08/05 02:34:29;;;;;;;61.33;52.80;;;17.60;99.90;;;;;;6318877;22;20053;-80
2021/08/05 02:36:55;;;;;;;59.30;52.70;;;17.70;99.90;;;;;;6320465;22;20093;-79
2021/08/05 02:39:22;;;;;;;61.50;53.40;;;17.70;99.90;;;;;;6315987;22;20020;-78
2021/08/05 02:41:51;;;;;;;59.65;51.17;;;17.70;99.90;;;;;;6311923;22;20054;-80
2021/08/05 02:44:19;;;;;;;62.78;52.42;;;17.70;99.90;;;;;;6312782;22;20288;-80
2021/08/05 02:46:48;;;;;;;56.33;50.15;;;17.70;99.90;;;;;;6314010;22;20051;-79
2021/08/05 02:49:16;;;;;;;56.00;49.95;;;17.70;99.90;;;;;;6313259;22;20019;-80
2021/08/05 02:51:44;;;;;;;57.08;50.78;;;17.60;99.90;;;;;;6312953;22;20030;-81
2021/08/05 02:54:11;;;;;;;61.65;51.20;;;17.50;99.90;;;;;;6315050;22;20109;-80
2021/08/05 02:56:40;;;;;;;59.40;51.63;;;17.50;99.90;;;;;;6315439;22;20094;-81
2021/08/05 02:59:07;;;;;;;58.65;50.80;;;17.40;99.90;;;;;;6314108;22;20015;-81
2021/08/05 03:01:34;;;;;;;59.13;50.50;;;17.40;99.90;;;;;;6316038;22;20030;-82
2021/08/05 03:04:03;;;;;;;55.53;49.50;;;17.40;99.90;;;;;;6314835;22;20074;-81
2021/08/05 03:06:31;;;;;;;59.53;50.92;;;17.40;99.90;;;;;;6316614;22;20062;-81
2021/08/05 03:08:58;;;;;;;56.30;49.88;;;17.40;99.90;;;;;;6317257;22;20019;-81
2021/08/05 03:11:25;;;;;;;58.70;47.78;;;17.40;99.90;;;;;;6330942;22;20011;-79
2021/08/05 03:13:52;;;;;;;55.33;48.60;;;17.40;99.90;;;;;;6318446;22;20358;-79
2021/08/05 03:16:18;;;;;;;56.67;48.78;;;17.40;99.90;;;;;;6312544;22;20497;-80
2021/08/05 03:18:45;;;;;;;51.63;46.03;;;17.40;99.90;;;;;;6312671;22;20027;-80
2021/08/05 03:21:13;;;;;;;52.10;46.40;;;17.40;99.90;;;;;;6312594;22;20023;-79
2021/08/05 03:23:40;;;;;;;51.53;45.95;;;17.50;99.90;;;;;;6311015;22;20335;-78
2021/08/05 03:26:07;;;;;;;51.92;44.38;;;17.50;99.90;;;;;;6308828;22;20098;-80
2021/08/05 03:28:34;;;;;;;49.88;44.22;;;17.50;99.90;;;;;;6313792;22;20492;-80
2021/08/05 03:31:01;;;;;;;51.17;44.88;;;17.40;99.90;;;;;;6313423;22;20051;-79
2021/08/05 03:33:28;;;;;;;49.45;44.17;;;17.40;99.90;;;;;;6312834;22;20390;-81
2021/08/05 03:35:55;;;;;;;49.90;43.90;;;17.40;99.90;;;;;;6312161;22;20098;-80
2021/08/05 03:38:23;;;;;;;50.33;43.33;;;17.40;99.90;;;;;;6312484;22;20053;-80
2021/08/05 03:40:50;;;;;;;48.15;42.92;;;17.40;99.90;;;;;;6312372;22;20020;-79
2021/08/05 03:43:17;;;;;;;49.58;42.42;;;17.50;99.90;;;;;;6312302;22;20023;-79
2021/08/05 03:45:44;;;;;;;50.17;43.05;;;17.50;99.90;;;;;;6312311;22;20046;-79
2021/08/05 03:48:11;;;;;;;47.83;42.63;;;17.50;99.90;;;;;;6311040;22;20084;-79
2021/08/05 03:50:38;;;;;;;48.15;41.53;;;17.50;99.90;;;;;;6311148;22;20046;-80
2021/08/05 03:53:05;;;;;;;47.22;42.03;;;17.50;99.90;;;;;;6312875;22;20050;-82
2021/08/05 03:55:33;;;;;;;46.40;41.53;;;17.40;99.90;;;;;;6314896;22;20093;-82
2021/08/05 03:58:00;;;;;;;46.92;41.83;;;17.40;99.90;;;;;;6313830;22;20090;-81
2021/08/05 04:00:27;;;;;;;48.53;40.17;;;17.30;99.90;;;;;;6312931;22;20081;-81
2021/08/05 04:02:53;;;;;;;47.83;39.85;;;17.30;99.90;;;;;;6313487;22;20046;-80
2021/08/05 04:05:21;;;;;;;47.03;41.53;;;17.30;99.90;;;;;;6313104;22;20090;-80
2021/08/05 04:07:47;;;;;;;45.20;40.38;;;17.30;99.90;;;;;;6312135;22;20023;-80
2021/08/05 04:10:14;;;;;;;44.53;39.72;;;17.20;99.90;;;;;;6312235;22;20043;-80
2021/08/05 04:12:42;;;;;;;42.05;37.70;;;17.30;99.90;;;;;;6310794;22;20099;-80
2021/08/05 04:15:10;;;;;;;45.72;40.03;;;17.30;99.90;;;;;;6312271;22;20038;-81
2021/08/05 04:17:38;;;;;;;44.20;39.50;;;17.30;99.90;;;;;;6313274;22;20104;-81
2021/08/05 04:20:07;;;;;;;42.95;38.38;;;17.40;99.90;;;;;;6313585;22;20057;-81
2021/08/05 04:22:35;;;;;;;44.60;39.28;;;17.40;99.90;;;;;;6314165;22;20053;-81
2021/08/05 04:25:03;;;;;;;42.03;37.53;;;17.30;99.90;;;;;;6313869;22;20094;-81
2021/08/05 04:27:30;;;;;;;43.40;38.90;;;17.40;99.90;;;;;;6313486;22;20097;-81
2021/08/05 04:29:58;;;;;;;41.38;37.08;;;17.40;99.90;;;;;;6312444;22;20043;-81
2021/08/05 04:32:25;;;;;;;42.67;38.05;;;17.50;99.90;;;;;;6312625;22;20023;-81
2021/08/05 04:34:52;;;;;;;41.28;37.17;;;17.50;99.90;;;;;;6311611;22;20061;-81
2021/08/05 04:37:20;;;;;;;41.88;36.88;;;17.50;99.90;;;;;;6312767;22;20022;-81
2021/08/05 04:39:47;;;;;;;40.60;36.55;;;17.60;99.90;;;;;;6312636;22;20022;-81
2021/08/05 04:42:13;;;;;;;41.00;36.80;;;17.60;99.90;;;;;;6311435;22;20045;-79
2021/08/05 04:44:40;;;;;;;40.28;36.13;;;17.60;99.90;;;;;;6311901;22;20061;-79
2021/08/05 04:47:09;;;;;;;39.80;35.47;;;17.60;99.90;;;;;;6312334;22;20023;-80
2021/08/05 04:49:36;;;;;;;40.05;35.72;;;17.60;99.90;;;;;;6311545;22;20130;-79
2021/08/05 04:52:05;;;;;;;39.35;35.03;;;17.70;99.90;;;;;;6311691;22;20024;-80
2021/08/05 04:54:32;;;;;;;37.45;33.05;;;17.70;99.90;;;;;;6312925;22;20077;-80
2021/08/05 04:56:58;;;;;;;35.22;31.48;;;17.80;99.90;;;;;;6313614;22;20030;-81
2021/08/05 04:59:25;;;;;;;34.85;31.38;;;17.90;99.90;;;;;;6312851;22;20034;-80
2021/08/05 05:01:52;;;;;;;35.35;31.55;;;17.90;99.90;;;;;;6312117;22;20390;-79
2021/08/05 05:04:20;;;;;;;34.28;30.77;;;17.90;99.90;;;;;;6311553;22;20051;-79
2021/08/05 05:06:47;;;;;;;36.55;31.65;;;17.90;99.90;;;;;;6313662;22;20034;-80
2021/08/05 05:09:14;;;;;;;34.13;29.70;;;18.00;99.90;;;;;;6312149;22;20015;-80
2021/08/05 05:11:41;;;;;;;33.70;30.15;;;18.00;99.90;;;;;;6313086;22;20061;-80
2021/08/05 05:14:08;;;;;;;34.15;30.45;;;18.10;99.90;;;;;;6312333;22;20485;-80
2021/08/05 05:16:34;;;;;;;31.58;28.48;;;18.20;99.90;;;;;;6314222;22;20081;-81
2021/08/05 05:19:01;;;;;;;30.25;27.17;;;18.40;99.90;;;;;;6316286;22;20031;-80
2021/08/05 05:21:29;;;;;;;31.05;28.05;;;18.60;99.90;;;;;;6314900;22;20034;-81
2021/08/05 05:23:56;;;;;;;31.40;28.10;;;18.70;99.90;;;;;;6311258;22;20023;-79
2021/08/05 05:26:23;;;;;;;32.83;28.92;;;18.70;99.90;;;;;;6310834;22;20031;-78
2021/08/05 05:28:50;;;;;;;33.75;28.83;;;18.80;99.90;;;;;;6310557;22;20015;-79
2021/08/05 05:31:17;;;;;;;31.67;28.60;;;18.80;99.90;;;;;;6313405;22;20054;-79
2021/08/05 05:33:44;;;;;;;32.75;29.50;;;18.60;99.90;;;;;;6313237;22;20094;-80
2021/08/05 05:36:11;;;;;;;33.78;29.02;;;18.60;99.90;;;;;;6310822;22;20090;-79
2021/08/05 05:38:39;;;;;;;33.80;30.13;;;18.60;99.90;;;;;;6308880;22;20332;-78
2021/08/05 05:41:06;;;;;;;32.78;29.65;;;18.50;99.90;;;;;;6310025;22;20024;-78
2021/08/05 05:43:33;;;;;;;29.65;26.55;;;18.60;99.90;;;;;;6307620;22;20063;-78
2021/08/05 05:45:59;;;;;;;31.05;26.70;;;19.00;99.90;;;;;;6308892;22;20082;-79
2021/08/05 05:48:26;;;;;;;28.02;25.30;;;19.20;99.90;;;;;;6309945;22;20030;-79
2021/08/05 05:50:53;;;;;;;33.47;27.10;;;19.50;99.90;;;;;;6310510;22;20023;-80
2021/08/05 05:53:23;;;;;;;32.00;28.85;;;19.70;99.90;;;;;;6309742;22;20023;-78
2021/08/05 05:55:52;;;;;;;32.88;29.67;;;19.40;99.90;;;;;;6310550;22;20019;-77
2021/08/05 05:58:20;;;;;;;35.80;30.90;;;19.20;99.90;;;;;;6311731;22;20032;-79
2021/08/05 06:00:47;;;;;;;34.22;30.52;;;18.90;99.90;;;;;;6310936;22;20020;-80
2021/08/05 06:03:13;;;;;;;33.30;30.05;;;18.90;99.90;;;;;;6311336;22;20051;-80
2021/08/05 06:05:40;;;;;;;35.15;31.35;;;18.70;99.90;;;;;;6312175;22;20023;-80
2021/08/05 06:08:07;;;;;;;37.22;33.22;;;18.60;99.90;;;;;;6312196;22;20465;-78
2021/08/05 06:10:34;;;;;;;36.47;32.78;;;18.40;99.90;;;;;;6310103;22;20469;-78
2021/08/05 06:13:02;;;;;;;34.70;31.02;;;18.40;99.90;;;;;;6308081;22;20062;-78
2021/08/05 06:15:29;;;;;;;35.08;31.35;;;18.40;99.90;;;;;;6312497;22;20086;-79
2021/08/05 06:17:56;;;;;;;33.00;29.77;;;18.50;99.90;;;;;;6313785;22;20049;-82
2021/08/05 06:20:23;;;;;;;31.23;28.23;;;18.50;99.90;;;;;;6313600;22;20081;-82
2021/08/05 06:22:51;;;;;;;32.53;29.02;;;18.60;99.90;;;;;;6313593;22;20123;-82
2021/08/05 06:25:18;;;;;;;29.05;26.17;;;18.70;99.90;;;;;;6314605;22;20034;-80
2021/08/05 06:27:47;;;;;;;29.75;26.73;;;18.90;99.90;;;;;;6317143;22;20054;-81
2021/08/05 06:30:16;;;;;;;29.42;26.52;;;18.90;99.90;;;;;;6317894;22;20019;-82
2021/08/05 06:32:43;;;;;;;30.13;27.25;;;19.00;99.90;;;;;;6318177;22;20027;-81
2021/08/05 06:35:11;;;;;;;28.88;26.17;;;19.10;99.90;;;;;;6316648;22;20046;-81
2021/08/05 06:37:38;;;;;;;27.25;24.33;;;19.20;99.90;;;;;;6315989;22;20365;-79
2021/08/05 06:40:06;;;;;;;27.38;24.60;;;19.30;99.90;;;;;;6314496;22;20045;-79
2021/08/05 06:42:34;;;;;;;28.30;25.40;;;19.40;99.90;;;;;;6314081;22;20046;-80
2021/08/05 06:45:01;;;;;;;26.83;24.10;;;19.50;99.90;;;;;;6312358;22;20062;-79
2021/08/05 06:47:30;;;;;;;26.90;24.15;;;19.70;99.90;;;;;;6312161;22;20493;-79
2021/08/05 06:49:57;;;;;;;27.17;24.25;;;19.80;99.90;;;;;;6312576;22;20073;-78
2021/08/05 06:52:24;;;;;;;29.20;25.67;;;19.80;99.90;;;;;;6311861;22;20023;-79
2021/08/05 06:54:50;;;;;;;26.38;23.88;;;19.90;99.90;;;;;;6309045;22;20089;-78
2021/08/05 06:57:17;;;;;;;27.63;24.88;;;20.00;99.90;;;;;;6309868;22;20053;-79
2021/08/05 06:59:44;;;;;;;27.98;25.13;;;20.00;99.90;;;;;;6311721;22;20026;-79
2021/08/05 07:02:11;;;;;;;29.33;23.38;;;20.10;99.90;;;;;;6312208;22;20057;-79
2021/08/05 07:04:39;;;;;;;25.80;23.20;;;20.10;99.90;;;;;;6312890;22;20023;-79
2021/08/05 07:07:06;;;;;;;28.50;23.77;;;20.10;99.90;;;;;;6312737;22;20050;-79
2021/08/05 07:09:33;;;;;;;25.05;22.38;;;20.10;99.90;;;;;;6312439;22;20054;-80
2021/08/05 07:12:00;;;;;;;25.65;22.98;;;20.10;99.90;;;;;;6312345;22;20030;-79
2021/08/05 07:14:27;;;;;;;25.02;22.38;;;20.20;99.90;;;;;;6311418;22;20051;-79
2021/08/05 07:16:54;;;;;;;24.73;22.23;;;20.40;99.90;;;;;;6313156;22;20074;-80
2021/08/05 07:19:20;;;;;;;25.02;21.73;;;20.40;99.90;;;;;;6312882;22;20137;-79
2021/08/05 07:21:49;;;;;;;25.27;22.67;;;20.50;99.90;;;;;;6313186;22;20488;-79
2021/08/05 07:24:15;;;;;;;26.17;23.38;;;20.50;99.90;;;;;;6312033;22;20062;-80
2021/08/05 07:26:43;;;;;;;25.85;23.00;;;20.50;99.90;;;;;;6312091;22;20031;-82
2021/08/05 07:29:10;;;;;;;28.83;23.63;;;20.40;99.90;;;;;;6315908;22;20020;-81
2021/08/05 07:31:37;;;;;;;26.38;23.77;;;20.30;99.90;;;;;;6315291;22;20058;-80
2021/08/05 07:34:04;;;;;;;27.42;24.52;;;20.30;99.90;;;;;;6314714;22;20058;-81
2021/08/05 07:36:31;;;;;;;28.77;25.95;;;20.20;99.90;;;;;;6315144;22;20046;-81
2021/08/05 07:38:59;;;;;;;29.52;26.70;;;20.10;99.90;;;;;;6314441;22;20023;-81
2021/08/05 07:41:27;;;;;;;30.27;27.02;;;20.00;99.90;;;;;;6313562;22;20049;-80
2021/08/05 07:43:54;;;;;;;29.52;26.67;;;20.00;99.90;;;;;;6312395;22;20026;-81
2021/08/05 07:46:24;;;;;;;31.02;27.80;;;20.00;99.90;;;;;;6313422;22;20098;-81
2021/08/05 07:48:51;;;;;;;28.25;25.50;;;20.10;99.90;;;;;;6313917;22;20020;-80
2021/08/05 07:51:18;;;;;;;30.25;27.15;;;20.20;99.90;;;;;;6313574;22;20023;-81
2021/08/05 07:53:45;;;;;;;30.25;27.25;;;20.30;99.90;;;;;;6281872;22;20034;-76
2021/08/05 07:56:13;;;;;;;31.45;28.35;;;20.30;99.90;;;;;;6277721;22;20028;-79
2021/08/05 07:58:46;;;;;;;35.72;29.23;;;20.30;99.90;;;;;;6275377;22;20035;-78
2021/08/05 08:01:13;;;;;;;31.00;27.75;;;20.10;99.90;;;;;;6275328;22;20019;-78
2021/08/05 08:03:40;;;;;;;33.00;29.70;;;20.20;99.90;;;;;;6275759;22;20015;-78
2021/08/05 08:06:07;;;;;;;33.75;30.45;;;20.30;99.90;;;;;;6276122;22;20027;-76
2021/08/05 08:08:33;;;;;;;32.67;29.48;;;20.30;99.90;;;;;;6275701;22;20027;-78
2021/08/05 08:11:01;;;;;;;34.28;30.92;;;20.40;99.90;;;;;;6280042;22;20054;-77
2021/08/05 08:13:32;;;;;;;33.67;30.15;;;20.30;99.90;;;;;;6274871;22;20019;-78
2021/08/05 08:16:05;;;;;;;34.25;30.75;;;20.40;99.90;;;;;;6278670;22;20077;-78
2021/08/05 08:18:32;;;;;;;34.72;31.33;;;20.60;99.90;;;;;;6279905;22;20401;-77
2021/08/05 08:20:59;;;;;;;36.88;32.92;;;20.80;99.90;;;;;;6279260;22;20020;-78
2021/08/05 08:23:26;;;;;;;36.88;33.28;;;20.90;99.90;;;;;;6276911;22;20024;-78
2021/08/05 08:25:53;;;;;;;38.33;34.50;;;21.00;99.90;;;;;;6274510;22;20051;-77
2021/08/05 08:28:20;;;;;;;37.20;33.53;;;21.00;99.90;;;;;;6274290;22;20459;-77
2021/08/05 08:30:49;;;;;;;37.95;32.80;;;21.20;99.90;;;;;;6274377;22;20015;-77
2021/08/05 08:33:15;;;;;;;37.65;33.85;;;21.30;99.90;;;;;;6273519;22;20478;-77
2021/08/05 08:35:42;;;;;;;37.08;33.17;;;21.40;99.90;;;;;;6274076;22;20028;-78
2021/08/05 08:38:09;;;;;;;36.55;32.85;;;21.50;99.90;;;;;;6274148;22;20546;-77
2021/08/05 08:40:36;;;;;;;38.20;34.15;;;21.60;99.90;;;;;;6279508;22;20425;-78
2021/08/05 08:43:05;;;;;;;36.72;32.83;;;21.60;99.90;;;;;;6277640;22;20027;-77
2021/08/05 08:45:33;;;;;;;36.88;33.30;;;21.50;99.90;;;;;;6277302;22;20122;-78
2021/08/05 08:48:01;;;;;;;36.42;32.72;;;21.40;99.90;;;;;;6279386;22;20046;-79
2021/08/05 08:50:32;;;;;;;38.30;34.25;;;21.40;99.90;;;;;;6280655;22;20030;-78
2021/08/05 08:53:04;;;;;;;34.85;31.20;;;21.30;99.90;;;;;;6275447;22;20035;-77
2021/08/05 08:55:33;;;;;;;33.90;30.42;;;21.30;99.90;;;;;;6276222;22;20019;-78
2021/08/05 08:58:03;;;;;;;33.47;29.92;;;21.40;99.90;;;;;;6278920;22;20024;-79
2021/08/05 09:00:31;;;;;;;31.38;28.35;;;21.50;99.90;;;;;;6276533;22;20019;-78
2021/08/05 09:02:59;;;;;;;30.80;27.85;;;21.40;99.90;;;;;;6276106;22;20353;-78
2021/08/05 09:05:28;;;;;;;28.55;25.77;;;21.30;99.90;;;;;;6276922;22;20354;-79
2021/08/05 09:07:58;;;;;;;29.40;26.50;;;21.40;99.90;;;;;;6274319;22;20085;-79
2021/08/05 09:10:26;;;;;;;28.42;25.83;;;21.40;99.90;;;;;;6275988;22;20026;-78
2021/08/05 09:12:56;;;;;;;27.90;24.95;;;21.60;99.90;;;;;;6277686;22;20047;-77
2021/08/05 09:15:34;;;;;;;24.85;22.35;;;21.80;99.90;;;;;;6275377;22;20055;-79
2021/08/05 09:18:02;;;;;;;23.52;21.25;;;21.90;99.90;;;;;;6280644;22;20476;-79
2021/08/05 09:20:30;;;;;;;21.40;19.25;;;21.90;99.90;;;;;;6275777;22;20015;-78
2021/08/05 09:22:58;;;;;;;20.65;18.50;;;22.00;99.90;;;;;;6273472;22;20035;-78
2021/08/05 09:25:32;;;;;;;24.15;21.02;;;21.90;99.90;;;;;;6274385;22;20385;-78
2021/08/05 09:28:01;;;;;;;22.73;19.13;;;22.00;99.90;;;;;;6276486;22;20066;-78
2021/08/05 09:30:34;;;;;;;21.08;19.13;;;22.30;99.90;;;;;;6277724;22;20038;-77
2021/08/05 09:33:07;;;;;;;21.90;19.30;;;22.60;99.90;;;;;;6278248;22;20126;-78
2021/08/05 09:35:36;;;;;;;22.13;19.88;;;22.80;99.90;;;;;;6279441;22;20031;-78
2021/08/05 09:38:20;;;;;;;20.35;18.35;;;22.90;99.90;;;;;;6279757;22;20055;-79
2021/08/05 09:40:47;;;;;;;21.00;18.90;;;23.00;99.90;;;;;;6279073;22;20023;-79
2021/08/05 09:43:23;;;;;;;21.10;19.00;;;23.10;99.90;;;;;;6277871;22;20485;-77
2021/08/05 09:45:50;;;;;;;20.20;18.23;;;23.50;99.90;;;;;;6277768;22;20028;-79
2021/08/05 09:48:33;;;;;;;21.83;19.23;;;23.90;99.90;;;;;;6279132;22;20137;-78
2021/08/05 09:51:07;;;;;;;21.27;19.08;;;24.20;99.90;;;;;;6279084;22;20015;-79
2021/08/05 09:53:34;;;;;;;21.38;19.15;;;24.30;99.90;;;;;;6280526;22;20019;-78
2021/08/05 09:56:12;;;;;;;20.67;18.40;;;24.20;99.90;;;;;;6280762;22;20099;-78
2021/08/05 09:58:40;;;;;;;21.58;19.33;;;24.30;99.90;;;;;;6281430;22;20050;-78
2021/08/05 10:01:08;;;;;;;20.38;18.23;;;24.00;99.90;;;;;;6285038;22;20019;-78
2021/08/05 10:03:36;;;;;;;19.45;17.52;;;24.00;99.90;;;;;;6289522;22;20110;-78
2021/08/05 10:06:06;;;;;;;22.33;17.10;;;23.80;99.90;;;;;;6297546;22;20020;-79
2021/08/05 10:08:34;;;;;;;26.35;18.05;;;23.80;99.90;;;;;;6297634;22;20024;-76
2021/08/05 10:11:00;;;;;;;19.38;16.70;;;23.70;99.90;;;;;;6298261;22;20054;-80
2021/08/05 10:25:25;;;;;;;16.90;12.10;;;23.00;99.90;;;;;;5110121;27;20457;-77
2021/08/05 10:27:53;;;;;;;14.80;11.18;;;23.10;99.90;;;;;;5110772;28;20074;-77
2021/08/05 10:30:21;;;;;;;10.75;9.65;;;23.30;99.90;;;;;;5109730;28;20416;-77
2021/08/05 10:32:48;;;;;;;10.32;9.00;;;23.40;99.90;;;;;;5108726;28;20147;-79
2021/08/05 10:35:16;;;;;;;11.50;9.27;;;23.40;99.90;;;;;;5109985;28;20047;-77
2021/08/05 10:37:43;;;;;;;9.73;8.73;;;23.60;99.90;;;;;;5110975;28;20134;-79
2021/08/05 10:40:13;;;;;;;10.65;9.38;;;23.80;99.90;;;;;;5118057;22;20087;-86
2021/08/05 10:42:46;;;;;;;12.57;10.55;;;23.80;99.90;;;;;;5101060;28;20109;-88
2021/08/05 10:45:15;;;;;;;15.65;11.40;;;24.00;99.90;;;;;;5101025;28;20286;-87
2021/08/05 10:51:40;;;;;;;13.05;9.50;;;23.90;99.90;;;;;;5117253;28;20090;-89
2021/08/05 10:54:55;;;;;;;15.40;11.13;;;23.90;99.90;;;;;;5124068;28;20048;-87
2021/08/05 11:04:08;;;;;;;11.23;9.20;;;24.20;99.90;;;;;;5118480;28;20048;-89
2021/08/05 11:06:36;;;;;;;10.77;8.60;;;24.20;99.90;;;;;;5120823;28;20056;-88
2021/08/05 11:09:26;;;;;;;12.18;8.98;;;24.20;99.90;;;;;;5120292;28;20056;-88
2021/08/05 11:12:16;;;;;;;11.52;8.57;;;24.50;99.90;;;;;;5118008;28;20044;-89
2021/08/05 11:15:33;;;;;;;11.25;8.40;;;24.60;99.90;;;;;;5118831;28;20056;-88
2021/08/05 11:18:20;;;;;;;10.68;8.38;;;24.80;99.90;;;;;;5118627;28;20492;-88
2021/08/05 11:21:26;;;;;;;10.52;9.02;;;24.90;99.90;;;;;;5119396;28;20101;-88
2021/08/05 11:23:56;;;;;;;10.88;8.85;;;24.80;99.90;;;;;;5119249;28;20458;-86
2021/08/05 11:26:26;;;;;;;10.80;8.27;;;24.80;99.90;;;;;;5119963;28;20788;-87
2021/08/05 11:28:55;;;;;;;10.68;8.23;;;24.80;99.90;;;;;;5120945;27;20048;-87
2021/08/05 11:31:42;;;;;;;9.90;7.60;;;24.90;99.90;;;;;;5120856;28;20404;-85
2021/08/05 11:34:12;;;;;;;11.38;7.68;;;25.10;99.90;;;;;;5118458;28;20112;-84
2021/08/05 11:36:46;;;;;;;11.60;7.50;;;25.20;99.90;;;;;;5105422;28;20054;-86
2021/08/05 11:39:22;;;;;;;13.25;7.57;;;25.30;99.90;;;;;;5105617;28;20102;-86
2021/08/05 11:42:09;;;;;;;9.88;6.40;;;25.20;99.90;;;;;;5106136;28;20060;-86
2021/08/05 11:44:44;;;;;;;8.18;6.63;;;25.10;99.90;;;;;;5105010;28;20047;-87
2021/08/05 11:47:23;;;;;;;9.02;6.30;;;25.10;99.90;;;;;;5105518;28;20051;-86
2021/08/05 11:49:56;;;;;;;9.43;7.90;;;25.10;99.90;;;;;;5104627;28;20048;-86
2021/08/05 11:52:32;;;;;;;8.68;6.22;;;25.00;99.90;;;;;;5104039;28;20516;-85
2021/08/05 11:55:01;;;;;;;8.90;6.35;;;24.90;99.90;;;;;;5104494;28;20463;-86
2021/08/05 11:57:34;;;;;;;8.20;5.97;;;24.90;99.90;;;;;;5103958;28;20493;-86
2021/08/05 12:00:04;;;;;;;7.60;6.70;;;25.00;99.90;;;;;;5103513;28;20111;-86
2021/08/05 12:02:32;;;;;;;8.05;6.30;;;25.00;99.90;;;;;;5101531;28;20052;-87
2021/08/05 12:04:59;;;;;;;9.13;6.97;;;24.90;99.90;;;;;;5102378;28;20044;-88
2021/08/05 12:07:29;;;;;;;7.90;6.05;;;24.90;99.90;;;;;;5103742;28;20079;-88
2021/08/05 12:10:01;;;;;;;7.85;5.97;;;24.80;99.90;;;;;;5105530;28;20052;-88
2021/08/05 12:12:30;;;;;;;8.37;6.33;;;24.80;99.90;;;;;;5104951;28;20062;-86
2021/08/05 12:14:58;;;;;;;8.38;5.57;;;24.90;99.90;;;;;;5102835;28;20048;-90
2021/08/05 12:17:44;;;;;;;5.85;5.20;;;25.10;99.90;;;;;;5100529;28;20047;-87
2021/08/05 12:20:28;;;;;;;7.88;5.30;;;25.20;99.90;;;;;;5100697;28;20067;-88
2021/08/05 12:23:01;;;;;;;6.53;4.85;;;25.30;99.90;;;;;;5100480;28;20473;-88
2021/08/05 12:25:39;;;;;;;7.45;4.75;;;25.30;99.90;;;;;;5101467;28;20074;-88
2021/08/05 12:28:09;;;;;;;5.88;4.65;;;25.30;99.90;;;;;;5100737;28;20059;-86
2021/08/05 12:30:48;;;;;;;7.82;4.60;;;25.10;99.90;;;;;;5101177;28;20083;-86
2021/08/05 12:33:19;;;;;;;6.93;4.70;;;24.90;99.90;;;;;;5102418;28;20499;-86
2021/08/05 12:36:08;;;;;;;7.57;4.80;;;24.80;99.90;;;;;;5102749;28;20568;-90
2021/08/05 12:38:47;;;;;;;9.23;5.10;;;24.70;99.90;;;;;;5098161;28;20056;-89
2021/08/05 12:41:25;;;;;;;6.50;5.20;;;24.50;99.90;;;;;;5100758;28;20112;-87
2021/08/05 12:43:54;;;;;;;6.53;4.72;;;24.50;99.90;;;;;;5102329;28;20051;-86
2021/08/05 12:46:21;;;;;;;6.65;4.57;;;24.30;99.90;;;;;;5099359;28;20084;-86
2021/08/05 12:48:52;;;;;;;4.97;4.15;;;24.10;99.90;;;;;;5101217;28;20094;-88
2021/08/05 12:51:20;;;;;;;6.00;4.15;;;24.00;99.90;;;;;;5102631;28;20051;-88
2021/08/05 12:53:49;;;;;;;5.93;5.03;;;23.90;99.90;;;;;;5103951;28;20489;-88
2021/08/05 12:56:19;;;;;;;5.60;5.00;;;23.80;99.90;;;;;;5101923;28;20052;-86
2021/08/05 12:58:57;;;;;;;5.50;4.90;;;23.80;99.90;;;;;;5103059;28;20051;-88
2021/08/05 13:01:24;;;;;;;4.93;4.28;;;23.80;99.90;;;;;;5100867;28;20104;-87
2021/08/05 13:03:59;;;;;;;5.65;5.05;;;24.00;99.90;;;;;;5101446;28;20484;-89
2021/08/05 13:06:53;;;;;;;6.60;5.65;;;23.90;99.90;;;;;;5100394;28;20052;-88
2021/08/05 13:09:22;;;;;;;5.90;4.30;;;23.90;99.90;;;;;;5100589;28;20048;-88
2021/08/05 13:11:54;;;;;;;5.57;4.47;;;24.10;99.90;;;;;;5101598;28;20503;-86
2021/08/05 13:14:28;;;;;;;;;;;24.00;99.90;;;;;;5102676;28;20086;-88
2021/08/05 13:17:08;;;;;;;7.25;6.55;;;24.20;99.90;;;;;;5102083;28;19914;-88
2021/08/05 13:19:52;;;;;;;9.70;8.18;;;24.30;99.90;;;;;;5102086;28;20463;-87
2021/08/05 13:22:20;;;;;;;9.05;8.13;;;24.40;99.90;;;;;;5104376;28;20150;-92
2021/08/05 13:24:59;;;;;;;9.93;7.25;;;24.20;99.90;;;;;;5103828;28;20480;-88
2021/08/05 13:27:31;;;;;;;7.50;6.43;;;24.00;99.90;;;;;;5104992;28;20052;-88
2021/08/05 13:29:58;;;;;;;7.72;6.68;;;23.90;99.90;;;;;;5103589;28;20090;-89
2021/08/05 13:32:26;;;;;;;8.32;6.00;;;23.80;99.90;;;;;;5103582;28;20048;-88
2021/08/05 13:35:06;;;;;;;6.68;6.05;;;23.70;99.90;;;;;;5103630;28;20072;-88
2021/08/05 13:37:34;;;;;;;6.65;5.63;;;23.60;99.90;;;;;;5103667;28;20113;-87
2021/08/05 13:40:26;;;;;;;7.68;5.68;;;23.40;99.90;;;;;;5100905;28;20105;-88
2021/08/05 13:42:53;;;;;;;27.08;9.25;;;23.40;99.90;;;;;;5083580;28;20181;-88
2021/08/05 13:45:21;;;;;;;22.90;7.72;;;23.30;99.90;;;;;;5086321;28;20052;-87
2021/08/05 13:47:50;;;;;;;7.35;5.85;;;23.40;99.90;;;;;;5086841;28;20053;-88
2021/08/05 13:50:22;;;;;;;6.72;5.55;;;23.40;99.90;;;;;;5085396;28;20052;-88
2021/08/05 13:52:50;;;;;;;8.45;6.72;;;23.70;99.90;;;;;;5089426;28;20153;-90
2021/08/05 13:55:20;;;;;;;7.65;5.75;;;24.00;99.90;;;;;;5102191;28;20131;-88